sensor_id;sensor_type;location;lat;lon;timestamp;temperature;humidity
12289;DHT22;6207;49.308;7.336;2022-08-11T00:00:04;16.60;99.90
12289;DHT22;6207;49.308;7.336;2022-08-11T00:02:38;16.60;99.90
12289;DHT22;6207;49.308;7.336;2022-08-11T00:05:17;16.60;99.90
12289;DHT22;6207;49.308;7.336;2022-08-11T00:07:51;16.50;99.90
12289;DHT22;6207;49.308;7.336;2022-08-11T00:10:21;16.40;99.90
12289;DHT22;6207;49.308;7.336;2022-08-11T00:12:53;16.50;99.90
12289;DHT22;6207;49.308;7.336;2022-08-11T00:15:23;16.30;99.90
12289;DHT22;6207;49.308;7.336;2022-08-11T00:17:57;16.30;99.90
12289;DHT22;6207;49.308;7.336;2022-08-11T00:20:33;16.40;99.90
12289;DHT22;6207;49.308;7.336;2022-08-11T00:23:07;16.20;99.90
12289;DHT22;6207;49.308;7.336;2022-08-11T00:25:48;16.20;99.90
12289;DHT22;6207;49.308;7.336;2022-08-11T00:28:32;16.20;99.90
12289;DHT22;6207;49.308;7.336;2022-08-11T00:31:06;16.20;99.90
12289;DHT22;6207;49.308;7.336;2022-08-11T00:33:35;16.10;99.90
12289;DHT22;6207;49.308;7.336;2022-08-11T00:36:14;16.10;99.90
12289;DHT22;6207;49.308;7.336;2022-08-11T00:38:44;16.00;99.90
12289;DHT22;6207;49.308;7.336;2022-08-11T00:47:09;15.90;99.90
12289;DHT22;6207;49.308;7.336;2022-08-11T01:12:27;15.60;99.90
12289;DHT22;6207;49.308;7.336;2022-08-11T01:29:39;15.50;99.90
12289;DHT22;6207;49.308;7.336;2022-08-11T01:48:48;15.20;99.90
12289;DHT22;6207;49.308;7.336;2022-08-11T01:54:33;15.10;99.90
12289;DHT22;6207;49.308;7.336;2022-08-11T01:59:40;15.10;99.90
12289;DHT22;6207;49.308;7.336;2022-08-11T02:14:14;14.90;99.90
12289;DHT22;6207;49.308;7.336;2022-08-11T02:19:46;14.80;99.90
12289;DHT22;6207;49.308;7.336;2022-08-11T02:28:59;14.80;99.90
12289;DHT22;6207;49.308;7.336;2022-08-11T02:38:04;14.60;99.90
12289;DHT22;6207;49.308;7.336;2022-08-11T02:43:34;14.50;99.90
12289;DHT22;6207;49.308;7.336;2022-08-11T02:49:44;14.60;99.90
12289;DHT22;6207;49.308;7.336;2022-08-11T02:53:15;14.50;99.90
12289;DHT22;6207;49.308;7.336;2022-08-11T02:56:05;14.40;99.90
12289;DHT22;6207;49.308;7.336;2022-08-11T02:58:54;14.40;99.90
12289;DHT22;6207;49.308;7.336;2022-08-11T03:01:58;14.40;99.90
12289;DHT22;6207;49.308;7.336;2022-08-11T03:05:36;14.30;99.90
12289;DHT22;6207;49.308;7.336;2022-08-11T03:13:18;14.20;99.90
12289;DHT22;6207;49.308;7.336;2022-08-11T03:16:17;14.20;99.90
12289;DHT22;6207;49.308;7.336;2022-08-11T03:22:22;14.10;99.90
12289;DHT22;6207;49.308;7.336;2022-08-11T03:25:01;14.10;99.90
12289;DHT22;6207;49.308;7.336;2022-08-11T03:27:49;14.00;99.90
12289;DHT22;6207;49.308;7.336;2022-08-11T03:33:22;14.10;99.90
12289;DHT22;6207;49.308;7.336;2022-08-11T03:42:56;14.00;99.90
12289;DHT22;6207;49.308;7.336;2022-08-11T03:45:30;14.00;99.90
12289;DHT22;6207;49.308;7.336;2022-08-11T03:56:12;14.00;99.90
12289;DHT22;6207;49.308;7.336;2022-08-11T03:59:07;14.10;99.90
12289;DHT22;6207;49.308;7.336;2022-08-11T04:07:27;14.10;99.90
12289;DHT22;6207;49.308;7.336;2022-08-11T04:16:06;14.00;99.90
12289;DHT22;6207;49.308;7.336;2022-08-11T04:22:15;14.00;99.90
12289;DHT22;6207;49.308;7.336;2022-08-11T04:55:35;14.10;99.90
12289;DHT22;6207;49.308;7.336;2022-08-11T05:13:34;14.40;99.90
12289;DHT22;6207;49.308;7.336;2022-08-11T05:16:27;14.30;99.90
12289;DHT22;6207;49.308;7.336;2022-08-11T05:19:19;14.40;99.90
12289;DHT22;6207;49.308;7.336;2022-08-11T05:22:11;14.50;99.90
12289;DHT22;6207;49.308;7.336;2022-08-11T05:25:06;14.50;99.90
12289;DHT22;6207;49.308;7.336;2022-08-11T05:28:39;14.70;99.90
12289;DHT22;6207;49.308;7.336;2022-08-11T05:31:30;14.80;99.90
12289;DHT22;6207;49.308;7.336;2022-08-11T05:34:28;14.90;99.90
12289;DHT22;6207;49.308;7.336;2022-08-11T05:37:33;15.20;99.90
12289;DHT22;6207;49.308;7.336;2022-08-11T05:43:11;15.40;99.90
12289;DHT22;6207;49.308;7.336;2022-08-11T05:46:01;15.80;99.90
12289;DHT22;6207;49.308;7.336;2022-08-11T05:48:48;16.30;99.90
12289;DHT22;6207;49.308;7.336;2022-08-11T05:51:36;17.40;99.90
12289;DHT22;6207;49.308;7.336;2022-08-11T05:54:31;18.90;99.90
12289;DHT22;6207;49.308;7.336;2022-08-11T05:57:22;21.20;99.90
12289;DHT22;6207;49.308;7.336;2022-08-11T06:00:13;22.20;99.90
12289;DHT22;6207;49.308;7.336;2022-08-11T06:02:47;23.30;99.90
12289;DHT22;6207;49.308;7.336;2022-08-11T06:05:15;23.80;99.90
12289;DHT22;6207;49.308;7.336;2022-08-11T06:07:49;24.90;99.90
12289;DHT22;6207;49.308;7.336;2022-08-11T06:10:31;24.90;99.90
12289;DHT22;6207;49.308;7.336;2022-08-11T06:13:01;25.20;99.90
12289;DHT22;6207;49.308;7.336;2022-08-11T06:15:30;26.50;99.90
12289;DHT22;6207;49.308;7.336;2022-08-11T06:17:59;26.70;99.90
12289;DHT22;6207;49.308;7.336;2022-08-11T06:20:27;26.80;99.90
12289;DHT22;6207;49.308;7.336;2022-08-11T06:23:02;27.40;99.90
12289;DHT22;6207;49.308;7.336;2022-08-11T06:25:30;27.40;99.90
12289;DHT22;6207;49.308;7.336;2022-08-11T06:27:58;27.10;99.90
12289;DHT22;6207;49.308;7.336;2022-08-11T06:30:37;26.90;99.90
12289;DHT22;6207;49.308;7.336;2022-08-11T06:33:20;26.90;99.90
12289;DHT22;6207;49.308;7.336;2022-08-11T06:36:05;27.40;99.90
12289;DHT22;6207;49.308;7.336;2022-08-11T06:46:48;27.10;99.90
12289;DHT22;6207;49.308;7.336;2022-08-11T06:49:21;27.00;99.90
12289;DHT22;6207;49.308;7.336;2022-08-11T06:52:10;27.10;99.90
12289;DHT22;6207;49.308;7.336;2022-08-11T06:55:04;25.00;99.90
12289;DHT22;6207;49.308;7.336;2022-08-11T06:57:37;23.10;99.90
12289;DHT22;6207;49.308;7.336;2022-08-11T07:00:24;22.00;99.90
12289;DHT22;6207;49.308;7.336;2022-08-11T07:03:09;22.00;99.90
12289;DHT22;6207;49.308;7.336;2022-08-11T07:05:50;23.70;99.90
12289;DHT22;6207;49.308;7.336;2022-08-11T07:14:34;25.40;99.90
12289;DHT22;6207;49.308;7.336;2022-08-11T07:17:27;26.50;99.90
12289;DHT22;6207;49.308;7.336;2022-08-11T07:19:59;28.60;99.90
12289;DHT22;6207;49.308;7.336;2022-08-11T07:22:56;29.10;99.90
12289;DHT22;6207;49.308;7.336;2022-08-11T07:25:46;28.50;99.90
12289;DHT22;6207;49.308;7.336;2022-08-11T07:28:41;28.40;99.90
12289;DHT22;6207;49.308;7.336;2022-08-11T07:31:33;28.70;99.90
12289;DHT22;6207;49.308;7.336;2022-08-11T07:37:30;28.70;99.90
12289;DHT22;6207;49.308;7.336;2022-08-11T07:39:33;29.40;99.90
12289;DHT22;6207;49.308;7.336;2022-08-11T07:42:08;28.50;99.90
12289;DHT22;6207;49.308;7.336;2022-08-11T07:44:35;29.40;99.90
12289;DHT22;6207;49.308;7.336;2022-08-11T07:47:26;28.50;99.90
12289;DHT22;6207;49.308;7.336;2022-08-11T07:50:12;27.80;99.90
12289;DHT22;6207;49.308;7.336;2022-08-11T07:53:00;26.00;99.90
12289;DHT22;6207;49.308;7.336;2022-08-11T07:55:28;24.60;99.90
12289;DHT22;6207;49.308;7.336;2022-08-11T07:58:20;24.00;99.90
12289;DHT22;6207;49.308;7.336;2022-08-11T08:01:23;24.00;99.90
12289;DHT22;6207;49.308;7.336;2022-08-11T08:04:15;24.20;99.90
12289;DHT22;6207;49.308;7.336;2022-08-11T08:07:03;24.10;99.90
12289;DHT22;6207;49.308;7.336;2022-08-11T08:09:50;24.10;99.90
12289;DHT22;6207;49.308;7.336;2022-08-11T08:12:41;24.20;99.90
12289;DHT22;6207;49.308;7.336;2022-08-11T08:15:27;24.00;99.90
12289;DHT22;6207;49.308;7.336;2022-08-11T08:18:12;24.10;99.90
12289;DHT22;6207;49.308;7.336;2022-08-11T08:20:54;24.30;99.90
12289;DHT22;6207;49.308;7.336;2022-08-11T08:23:25;24.70;99.90
12289;DHT22;6207;49.308;7.336;2022-08-11T08:26:03;24.50;99.90
12289;DHT22;6207;49.308;7.336;2022-08-11T08:28:42;24.60;99.90
12289;DHT22;6207;49.308;7.336;2022-08-11T08:31:12;24.30;99.90
12289;DHT22;6207;49.308;7.336;2022-08-11T08:33:39;24.60;99.90
12289;DHT22;6207;49.308;7.336;2022-08-11T08:36:08;24.80;99.90
12289;DHT22;6207;49.308;7.336;2022-08-11T08:38:45;24.90;99.90
12289;DHT22;6207;49.308;7.336;2022-08-11T08:41:16;25.00;99.90
12289;DHT22;6207;49.308;7.336;2022-08-11T08:43:49;25.00;99.90
12289;DHT22;6207;49.308;7.336;2022-08-11T08:46:21;25.20;99.90
12289;DHT22;6207;49.308;7.336;2022-08-11T08:48:49;25.20;99.90
12289;DHT22;6207;49.308;7.336;2022-08-11T08:51:20;25.20;99.90
12289;DHT22;6207;49.308;7.336;2022-08-11T08:54:29;25.60;99.90
12289;DHT22;6207;49.308;7.336;2022-08-11T08:56:59;25.50;99.90
12289;DHT22;6207;49.308;7.336;2022-08-11T08:59:32;26.00;99.90
12289;DHT22;6207;49.308;7.336;2022-08-11T09:02:16;26.10;99.90
12289;DHT22;6207;49.308;7.336;2022-08-11T09:07:26;25.70;99.90
12289;DHT22;6207;49.308;7.336;2022-08-11T09:10:07;26.00;99.90
12289;DHT22;6207;49.308;7.336;2022-08-11T09:12:35;26.30;99.90
12289;DHT22;6207;49.308;7.336;2022-08-11T09:15:06;26.40;99.90
12289;DHT22;6207;49.308;7.336;2022-08-11T09:17:39;26.40;99.90
12289;DHT22;6207;49.308;7.336;2022-08-11T09:20:25;26.70;99.90
12289;DHT22;6207;49.308;7.336;2022-08-11T09:23:00;27.10;99.90
12289;DHT22;6207;49.308;7.336;2022-08-11T09:26:06;26.90;99.90
12289;DHT22;6207;49.308;7.336;2022-08-11T09:28:57;27.10;99.90
12289;DHT22;6207;49.308;7.336;2022-08-11T09:31:25;26.40;99.90
12289;DHT22;6207;49.308;7.336;2022-08-11T09:33:53;26.60;99.90
12289;DHT22;6207;49.308;7.336;2022-08-11T09:36:21;27.00;99.90
12289;DHT22;6207;49.308;7.336;2022-08-11T09:39:17;27.00;99.90
12289;DHT22;6207;49.308;7.336;2022-08-11T09:42:03;27.00;99.90
12289;DHT22;6207;49.308;7.336;2022-08-11T09:44:33;27.40;99.90
12289;DHT22;6207;49.308;7.336;2022-08-11T09:47:24;27.20;99.90
12289;DHT22;6207;49.308;7.336;2022-08-11T09:49:54;26.80;99.90
12289;DHT22;6207;49.308;7.336;2022-08-11T09:52:26;26.90;99.90
12289;DHT22;6207;49.308;7.336;2022-08-11T09:54:54;27.00;99.90
12289;DHT22;6207;49.308;7.336;2022-08-11T09:57:22;26.90;99.90
12289;DHT22;6207;49.308;7.336;2022-08-11T10:00:10;26.90;99.90
12289;DHT22;6207;49.308;7.336;2022-08-11T10:02:45;27.40;99.90
12289;DHT22;6207;49.308;7.336;2022-08-11T10:05:16;27.30;99.90
12289;DHT22;6207;49.308;7.336;2022-08-11T10:08:04;27.50;99.90
12289;DHT22;6207;49.308;7.336;2022-08-11T10:10:35;27.60;99.90
12289;DHT22;6207;49.308;7.336;2022-08-11T10:13:06;28.00;99.90
12289;DHT22;6207;49.308;7.336;2022-08-11T10:15:57;28.40;99.90
12289;DHT22;6207;49.308;7.336;2022-08-11T10:18:42;29.00;99.90
12289;DHT22;6207;49.308;7.336;2022-08-11T10:23:59;28.20;99.90
12289;DHT22;6207;49.308;7.336;2022-08-11T10:26:47;27.50;99.90
12289;DHT22;6207;49.308;7.336;2022-08-11T10:29:30;28.10;99.90
12289;DHT22;6207;49.308;7.336;2022-08-11T10:35:28;27.10;99.90
12289;DHT22;6207;49.308;7.336;2022-08-11T10:37:56;27.10;99.90
12289;DHT22;6207;49.308;7.336;2022-08-11T10:40:38;27.20;99.90
12289;DHT22;6207;49.308;7.336;2022-08-11T10:43:07;27.90;99.90
12289;DHT22;6207;49.308;7.336;2022-08-11T10:48:56;27.10;99.90
12289;DHT22;6207;49.308;7.336;2022-08-11T10:51:26;27.80;99.90
12289;DHT22;6207;49.308;7.336;2022-08-11T10:54:20;27.70;99.90
12289;DHT22;6207;49.308;7.336;2022-08-11T10:57:06;27.40;99.90
12289;DHT22;6207;49.308;7.336;2022-08-11T10:59:55;27.80;99.90
12289;DHT22;6207;49.308;7.336;2022-08-11T11:02:22;27.70;99.90
12289;DHT22;6207;49.308;7.336;2022-08-11T11:05:15;27.60;99.90
12289;DHT22;6207;49.308;7.336;2022-08-11T11:08:07;27.80;99.90
12289;DHT22;6207;49.308;7.336;2022-08-11T11:10:56;27.90;99.90
12289;DHT22;6207;49.308;7.336;2022-08-11T11:13:25;27.90;99.90
12289;DHT22;6207;49.308;7.336;2022-08-11T11:16:22;27.80;99.90
12289;DHT22;6207;49.308;7.336;2022-08-11T11:19:11;27.40;99.90
12289;DHT22;6207;49.308;7.336;2022-08-11T11:21:39;27.10;99.90
12289;DHT22;6207;49.308;7.336;2022-08-11T11:24:24;27.40;99.90
12289;DHT22;6207;49.308;7.336;2022-08-11T11:27:13;27.60;99.90
12289;DHT22;6207;49.308;7.336;2022-08-11T11:30:06;27.80;99.90
12289;DHT22;6207;49.308;7.336;2022-08-11T11:35:30;27.60;99.90
12289;DHT22;6207;49.308;7.336;2022-08-11T11:38:02;27.70;99.90
12289;DHT22;6207;49.308;7.336;2022-08-11T11:40:39;27.70;99.90
12289;DHT22;6207;49.308;7.336;2022-08-11T11:43:07;27.80;99.90
12289;DHT22;6207;49.308;7.336;2022-08-11T11:45:34;27.30;99.90
12289;DHT22;6207;49.308;7.336;2022-08-11T11:48:01;27.50;99.90
12289;DHT22;6207;49.308;7.336;2022-08-11T11:50:31;27.70;99.90
12289;DHT22;6207;49.308;7.336;2022-08-11T11:53:03;27.80;99.90
12289;DHT22;6207;49.308;7.336;2022-08-11T11:55:31;28.40;99.90
12289;DHT22;6207;49.308;7.336;2022-08-11T12:00:48;27.90;99.90
12289;DHT22;6207;49.308;7.336;2022-08-11T12:03:35;27.50;99.90
12289;DHT22;6207;49.308;7.336;2022-08-11T12:06:03;27.20;99.90
12289;DHT22;6207;49.308;7.336;2022-08-11T12:08:32;27.40;99.90
12289;DHT22;6207;49.308;7.336;2022-08-11T12:11:05;27.50;99.90
12289;DHT22;6207;49.308;7.336;2022-08-11T12:13:52;27.40;99.90
12289;DHT22;6207;49.308;7.336;2022-08-11T12:16:20;27.40;99.90
12289;DHT22;6207;49.308;7.336;2022-08-11T12:19:09;27.50;99.90
12289;DHT22;6207;49.308;7.336;2022-08-11T12:21:38;27.90;99.90
12289;DHT22;6207;49.308;7.336;2022-08-11T12:24:27;28.20;99.90
12289;DHT22;6207;49.308;7.336;2022-08-11T12:27:14;28.20;99.90
12289;DHT22;6207;49.308;7.336;2022-08-11T12:29:59;28.40;99.90
12289;DHT22;6207;49.308;7.336;2022-08-11T12:32:31;28.10;99.90
12289;DHT22;6207;49.308;7.336;2022-08-11T12:34:58;28.10;99.90
12289;DHT22;6207;49.308;7.336;2022-08-11T12:37:46;28.30;99.90
12289;DHT22;6207;49.308;7.336;2022-08-11T12:40:18;28.50;99.90
12289;DHT22;6207;49.308;7.336;2022-08-11T12:43:29;29.00;99.90
12289;DHT22;6207;49.308;7.336;2022-08-11T12:46:28;28.90;99.90
12289;DHT22;6207;49.308;7.336;2022-08-11T12:48:59;28.60;99.90
12289;DHT22;6207;49.308;7.336;2022-08-11T12:51:51;28.20;99.90
12289;DHT22;6207;49.308;7.336;2022-08-11T12:55:04;28.30;99.90
12289;DHT22;6207;49.308;7.336;2022-08-11T12:57:44;28.10;99.90
12289;DHT22;6207;49.308;7.336;2022-08-11T13:00:31;28.40;99.90
12289;DHT22;6207;49.308;7.336;2022-08-11T13:03:20;28.50;99.90
12289;DHT22;6207;49.308;7.336;2022-08-11T13:06:06;28.30;99.90
12289;DHT22;6207;49.308;7.336;2022-08-11T13:08:36;28.10;99.90
12289;DHT22;6207;49.308;7.336;2022-08-11T13:11:04;28.50;99.90
12289;DHT22;6207;49.308;7.336;2022-08-11T13:13:50;28.80;99.90
12289;DHT22;6207;49.308;7.336;2022-08-11T13:16:34;28.60;99.90
12289;DHT22;6207;49.308;7.336;2022-08-11T13:19:22;28.30;99.90
12289;DHT22;6207;49.308;7.336;2022-08-11T13:21:51;28.20;99.90
12289;DHT22;6207;49.308;7.336;2022-08-11T13:24:20;28.20;99.90
12289;DHT22;6207;49.308;7.336;2022-08-11T13:26:49;28.20;99.90
12289;DHT22;6207;49.308;7.336;2022-08-11T13:29:21;28.40;99.90
12289;DHT22;6207;49.308;7.336;2022-08-11T13:31:50;28.30;99.90
12289;DHT22;6207;49.308;7.336;2022-08-11T13:34:19;28.70;99.90
12289;DHT22;6207;49.308;7.336;2022-08-11T13:36:50;28.50;99.90
12289;DHT22;6207;49.308;7.336;2022-08-11T13:39:22;28.80;99.90
12289;DHT22;6207;49.308;7.336;2022-08-11T13:41:54;28.70;99.90
12289;DHT22;6207;49.308;7.336;2022-08-11T13:44:24;28.60;99.90
12289;DHT22;6207;49.308;7.336;2022-08-11T13:46:59;28.90;99.90
12289;DHT22;6207;49.308;7.336;2022-08-11T13:49:29;28.50;99.90
12289;DHT22;6207;49.308;7.336;2022-08-11T13:51:57;28.80;99.90
12289;DHT22;6207;49.308;7.336;2022-08-11T13:54:30;29.00;99.90
12289;DHT22;6207;49.308;7.336;2022-08-11T13:57:04;28.90;99.90
12289;DHT22;6207;49.308;7.336;2022-08-11T13:59:39;29.30;99.90
12289;DHT22;6207;49.308;7.336;2022-08-11T14:02:21;29.10;99.90
12289;DHT22;6207;49.308;7.336;2022-08-11T14:04:57;29.20;99.90
12289;DHT22;6207;49.308;7.336;2022-08-11T14:07:30;28.90;99.90
12289;DHT22;6207;49.308;7.336;2022-08-11T14:10:00;28.50;99.90
12289;DHT22;6207;49.308;7.336;2022-08-11T14:12:33;28.70;99.90
12289;DHT22;6207;49.308;7.336;2022-08-11T14:15:33;28.50;99.90
12289;DHT22;6207;49.308;7.336;2022-08-11T14:18:04;28.50;99.90
12289;DHT22;6207;49.308;7.336;2022-08-11T14:20:34;28.50;99.90
12289;DHT22;6207;49.308;7.336;2022-08-11T14:23:26;28.70;99.90
12289;DHT22;6207;49.308;7.336;2022-08-11T14:25:55;28.80;99.90
12289;DHT22;6207;49.308;7.336;2022-08-11T14:28:41;28.90;99.90
12289;DHT22;6207;49.308;7.336;2022-08-11T14:31:14;29.20;99.90
12289;DHT22;6207;49.308;7.336;2022-08-11T14:33:43;29.10;99.90
12289;DHT22;6207;49.308;7.336;2022-08-11T14:36:35;29.00;99.90
12289;DHT22;6207;49.308;7.336;2022-08-11T14:39:06;29.30;99.90
12289;DHT22;6207;49.308;7.336;2022-08-11T14:41:35;29.30;99.90
12289;DHT22;6207;49.308;7.336;2022-08-11T14:44:47;29.30;99.90
12289;DHT22;6207;49.308;7.336;2022-08-11T14:47:35;29.50;99.90
12289;DHT22;6207;49.308;7.336;2022-08-11T14:50:04;29.40;99.90
12289;DHT22;6207;49.308;7.336;2022-08-11T14:52:58;29.60;99.90
12289;DHT22;6207;49.308;7.336;2022-08-11T14:55:29;29.20;99.90
12289;DHT22;6207;49.308;7.336;2022-08-11T14:58:17;29.20;99.90
12289;DHT22;6207;49.308;7.336;2022-08-11T15:00:45;29.30;99.90
12289;DHT22;6207;49.308;7.336;2022-08-11T15:03:13;29.20;99.90
12289;DHT22;6207;49.308;7.336;2022-08-11T15:08:27;28.90;99.90
12289;DHT22;6207;49.308;7.336;2022-08-11T15:11:19;28.90;99.90
12289;DHT22;6207;49.308;7.336;2022-08-11T15:14:07;29.00;99.90
12289;DHT22;6207;49.308;7.336;2022-08-11T15:16:40;29.00;99.90
12289;DHT22;6207;49.308;7.336;2022-08-11T15:19:31;29.20;99.90
12289;DHT22;6207;49.308;7.336;2022-08-11T15:22:07;29.50;99.90
12289;DHT22;6207;49.308;7.336;2022-08-11T15:24:54;29.60;99.90
12289;DHT22;6207;49.308;7.336;2022-08-11T15:27:22;29.20;99.90
12289;DHT22;6207;49.308;7.336;2022-08-11T15:30:08;29.20;99.90
12289;DHT22;6207;49.308;7.336;2022-08-11T15:33:06;29.60;99.90
12289;DHT22;6207;49.308;7.336;2022-08-11T15:35:53;29.40;99.90
12289;DHT22;6207;49.308;7.336;2022-08-11T15:39:00;29.60;99.90
12289;DHT22;6207;49.308;7.336;2022-08-11T15:41:38;29.40;99.90
12289;DHT22;6207;49.308;7.336;2022-08-11T15:44:28;29.40;99.90
12289;DHT22;6207;49.308;7.336;2022-08-11T15:47:35;29.10;99.90
12289;DHT22;6207;49.308;7.336;2022-08-11T15:50:04;29.30;99.90
12289;DHT22;6207;49.308;7.336;2022-08-11T15:52:49;29.30;99.90
12289;DHT22;6207;49.308;7.336;2022-08-11T15:55:18;29.10;99.90
12289;DHT22;6207;49.308;7.336;2022-08-11T15:57:48;29.20;99.90
12289;DHT22;6207;49.308;7.336;2022-08-11T16:00:45;29.30;99.90
12289;DHT22;6207;49.308;7.336;2022-08-11T16:03:42;29.40;99.90
12289;DHT22;6207;49.308;7.336;2022-08-11T16:06:38;29.50;99.90
12289;DHT22;6207;49.308;7.336;2022-08-11T16:09:16;29.50;99.90
12289;DHT22;6207;49.308;7.336;2022-08-11T16:11:45;29.40;99.90
12289;DHT22;6207;49.308;7.336;2022-08-11T16:14:15;29.50;99.90
12289;DHT22;6207;49.308;7.336;2022-08-11T16:17:03;29.60;99.90
12289;DHT22;6207;49.308;7.336;2022-08-11T16:19:32;29.40;99.90
12289;DHT22;6207;49.308;7.336;2022-08-11T16:22:05;29.30;99.90
12289;DHT22;6207;49.308;7.336;2022-08-11T16:24:40;29.10;99.90
12289;DHT22;6207;49.308;7.336;2022-08-11T16:27:40;29.20;99.90
12289;DHT22;6207;49.308;7.336;2022-08-11T16:30:09;29.20;99.90
12289;DHT22;6207;49.308;7.336;2022-08-11T16:32:39;29.30;99.90
12289;DHT22;6207;49.308;7.336;2022-08-11T16:35:10;29.50;99.90
12289;DHT22;6207;49.308;7.336;2022-08-11T16:37:56;29.40;99.90
12289;DHT22;6207;49.308;7.336;2022-08-11T16:40:42;29.70;99.90
12289;DHT22;6207;49.308;7.336;2022-08-11T16:43:13;29.70;99.90
12289;DHT22;6207;49.308;7.336;2022-08-11T16:47:46;29.60;99.90
12289;DHT22;6207;49.308;7.336;2022-08-11T16:50:36;29.20;99.90
12289;DHT22;6207;49.308;7.336;2022-08-11T16:53:03;29.60;99.90
12289;DHT22;6207;49.308;7.336;2022-08-11T16:55:30;30.20;99.90
12289;DHT22;6207;49.308;7.336;2022-08-11T16:58:19;30.00;99.90
12289;DHT22;6207;49.308;7.336;2022-08-11T17:01:07;30.10;99.90
12289;DHT22;6207;49.308;7.336;2022-08-11T17:03:42;30.10;99.90
12289;DHT22;6207;49.308;7.336;2022-08-11T17:06:28;29.90;99.90
12289;DHT22;6207;49.308;7.336;2022-08-11T17:09:18;30.00;99.90
12289;DHT22;6207;49.308;7.336;2022-08-11T17:12:07;30.50;99.90
12289;DHT22;6207;49.308;7.336;2022-08-11T17:14:56;30.00;99.90
12289;DHT22;6207;49.308;7.336;2022-08-11T17:17:27;30.20;99.90
12289;DHT22;6207;49.308;7.336;2022-08-11T17:20:00;30.40;99.90
12289;DHT22;6207;49.308;7.336;2022-08-11T17:22:49;30.60;99.90
12289;DHT22;6207;49.308;7.336;2022-08-11T17:25:39;29.70;99.90
12289;DHT22;6207;49.308;7.336;2022-08-11T17:28:27;29.30;99.90
12289;DHT22;6207;49.308;7.336;2022-08-11T17:30:55;29.10;99.90
12289;DHT22;6207;49.308;7.336;2022-08-11T17:33:49;29.00;99.90
12289;DHT22;6207;49.308;7.336;2022-08-11T17:36:36;29.00;99.90
12289;DHT22;6207;49.308;7.336;2022-08-11T17:39:11;28.90;99.90
12289;DHT22;6207;49.308;7.336;2022-08-11T17:41:39;28.80;99.90
12289;DHT22;6207;49.308;7.336;2022-08-11T17:44:26;28.90;99.90
12289;DHT22;6207;49.308;7.336;2022-08-11T17:47:12;28.90;99.90
12289;DHT22;6207;49.308;7.336;2022-08-11T17:49:59;28.70;99.90
12289;DHT22;6207;49.308;7.336;2022-08-11T17:52:44;28.80;99.90
12289;DHT22;6207;49.308;7.336;2022-08-11T17:55:37;28.70;99.90
12289;DHT22;6207;49.308;7.336;2022-08-11T17:58:24;28.60;99.90
12289;DHT22;6207;49.308;7.336;2022-08-11T18:01:11;28.60;99.90
12289;DHT22;6207;49.308;7.336;2022-08-11T18:03:39;28.60;99.90
12289;DHT22;6207;49.308;7.336;2022-08-11T18:06:18;28.60;99.90
12289;DHT22;6207;49.308;7.336;2022-08-11T18:09:06;28.50;99.90
12289;DHT22;6207;49.308;7.336;2022-08-11T18:11:52;28.30;99.90
12289;DHT22;6207;49.308;7.336;2022-08-11T18:14:42;28.20;99.90
12289;DHT22;6207;49.308;7.336;2022-08-11T18:17:30;28.10;99.90
12289;DHT22;6207;49.308;7.336;2022-08-11T18:20:16;27.90;99.90
12289;DHT22;6207;49.308;7.336;2022-08-11T18:23:07;27.90;99.90
12289;DHT22;6207;49.308;7.336;2022-08-11T18:26:15;27.90;99.90
12289;DHT22;6207;49.308;7.336;2022-08-11T18:29:03;27.90;99.90
12289;DHT22;6207;49.308;7.336;2022-08-11T18:31:51;27.70;99.90
12289;DHT22;6207;49.308;7.336;2022-08-11T18:34:49;27.50;99.90
12289;DHT22;6207;49.308;7.336;2022-08-11T18:37:36;27.30;99.90
12289;DHT22;6207;49.308;7.336;2022-08-11T18:40:28;27.10;99.90
12289;DHT22;6207;49.308;7.336;2022-08-11T18:43:14;27.00;99.90
12289;DHT22;6207;49.308;7.336;2022-08-11T18:46:04;26.80;99.90
12289;DHT22;6207;49.308;7.336;2022-08-11T18:49:01;26.60;99.90
12289;DHT22;6207;49.308;7.336;2022-08-11T18:51:51;26.40;99.90
12289;DHT22;6207;49.308;7.336;2022-08-11T18:54:40;26.10;99.90
12289;DHT22;6207;49.308;7.336;2022-08-11T18:57:27;26.00;99.90
12289;DHT22;6207;49.308;7.336;2022-08-11T19:00:21;25.80;99.90
12289;DHT22;6207;49.308;7.336;2022-08-11T19:03:10;25.50;99.90
12289;DHT22;6207;49.308;7.336;2022-08-11T19:05:58;25.40;99.90
12289;DHT22;6207;49.308;7.336;2022-08-11T19:09:08;25.20;99.90
12289;DHT22;6207;49.308;7.336;2022-08-11T19:11:56;24.90;99.90
12289;DHT22;6207;49.308;7.336;2022-08-11T19:14:43;24.80;99.20
12289;DHT22;6207;49.308;7.336;2022-08-11T19:17:31;24.60;99.40
12289;DHT22;6207;49.308;7.336;2022-08-11T19:20:23;24.60;99.20
12289;DHT22;6207;49.308;7.336;2022-08-11T19:23:10;24.30;99.50
12289;DHT22;6207;49.308;7.336;2022-08-11T19:25:57;24.20;98.90
12289;DHT22;6207;49.308;7.336;2022-08-11T19:28:44;24.20;98.80
12289;DHT22;6207;49.308;7.336;2022-08-11T19:31:30;24.20;98.50
12289;DHT22;6207;49.308;7.336;2022-08-11T19:34:18;24.20;99.00
12289;DHT22;6207;49.308;7.336;2022-08-11T19:37:05;23.90;99.40
12289;DHT22;6207;49.308;7.336;2022-08-11T19:39:53;23.70;99.90
12289;DHT22;6207;49.308;7.336;2022-08-11T19:42:41;23.60;98.60
12289;DHT22;6207;49.308;7.336;2022-08-11T19:45:28;23.50;98.60
12289;DHT22;6207;49.308;7.336;2022-08-11T19:48:20;23.40;99.10
12289;DHT22;6207;49.308;7.336;2022-08-11T19:51:08;23.30;98.60
12289;DHT22;6207;49.308;7.336;2022-08-11T19:53:54;23.10;98.40
12289;DHT22;6207;49.308;7.336;2022-08-11T19:56:41;23.00;98.30
12289;DHT22;6207;49.308;7.336;2022-08-11T19:59:27;23.00;98.10
12289;DHT22;6207;49.308;7.336;2022-08-11T20:02:12;22.70;98.80
12289;DHT22;6207;49.308;7.336;2022-08-11T20:04:58;22.60;99.00
12289;DHT22;6207;49.308;7.336;2022-08-11T20:07:45;22.40;99.90
12289;DHT22;6207;49.308;7.336;2022-08-11T20:10:32;22.40;99.90
12289;DHT22;6207;49.308;7.336;2022-08-11T20:13:21;22.20;99.20
12289;DHT22;6207;49.308;7.336;2022-08-11T20:16:09;22.00;99.30
12289;DHT22;6207;49.308;7.336;2022-08-11T20:18:56;22.00;98.90
12289;DHT22;6207;49.308;7.336;2022-08-11T20:21:43;21.80;99.90
12289;DHT22;6207;49.308;7.336;2022-08-11T20:24:36;21.70;99.90
12289;DHT22;6207;49.308;7.336;2022-08-11T20:27:23;21.70;99.90
12289;DHT22;6207;49.308;7.336;2022-08-11T20:30:10;21.80;99.90
12289;DHT22;6207;49.308;7.336;2022-08-11T20:32:55;21.60;99.90
12289;DHT22;6207;49.308;7.336;2022-08-11T20:35:41;21.60;99.90
12289;DHT22;6207;49.308;7.336;2022-08-11T20:38:29;21.60;99.90
12289;DHT22;6207;49.308;7.336;2022-08-11T20:41:15;21.50;99.90
12289;DHT22;6207;49.308;7.336;2022-08-11T20:44:22;21.70;99.90
12289;DHT22;6207;49.308;7.336;2022-08-11T20:47:10;21.40;99.90
12289;DHT22;6207;49.308;7.336;2022-08-11T20:49:56;21.30;99.90
12289;DHT22;6207;49.308;7.336;2022-08-11T20:52:46;20.90;99.90
12289;DHT22;6207;49.308;7.336;2022-08-11T20:55:32;20.90;99.90
12289;DHT22;6207;49.308;7.336;2022-08-11T20:58:20;20.70;99.90
12289;DHT22;6207;49.308;7.336;2022-08-11T21:01:26;20.60;99.90
12289;DHT22;6207;49.308;7.336;2022-08-11T21:04:18;20.50;99.90
12289;DHT22;6207;49.308;7.336;2022-08-11T21:07:20;20.50;99.90